Time;durP1;ratioP1;P1;durP2;ratioP2;P2;SDS_P1;SDS_P2;PMS_P1;PMS_P2;Temp;Humidity;BMP_temperature;BMP_pressure;BME280_temperature;BME280_humidity;BME280_pressure;Samples;Min_cycle;Max_cycle;Signal;HPM_P1;HPM_P2
2022/02/16 00:02:02;;;;;;;0.30;0.30;;;3.40;99.90;;;;;;5076674;28;20795;-81
2022/02/16 00:04:28;;;;;;;0.30;0.30;;;3.30;99.90;;;;;;5076524;28;20456;-80
2022/02/16 00:06:55;;;;;;;0.30;0.30;;;3.30;99.90;;;;;;5076119;28;20476;-80
2022/02/16 00:09:22;;;;;;;0.30;0.30;;;3.30;99.90;;;;;;5076216;28;20488;-81
2022/02/16 00:11:48;;;;;;;1.60;0.50;;;3.30;99.90;;;;;;5076046;28;20956;-81
2022/02/16 00:14:15;;;;;;;0.30;0.30;;;3.30;99.90;;;;;;5076369;28;20453;-81
2022/02/16 00:16:43;;;;;;;0.30;0.20;;;3.30;99.90;;;;;;5076224;28;20468;-81
2022/02/16 00:19:10;;;;;;;0.30;0.30;;;3.30;99.90;;;;;;5076205;28;20420;-81
2022/02/16 00:21:37;;;;;;;0.30;0.20;;;3.30;99.90;;;;;;5076190;28;20459;-81
2022/02/16 00:24:04;;;;;;;0.30;0.30;;;3.40;99.90;;;;;;5076183;28;20455;-80
2022/02/16 00:26:31;;;;;;;0.30;0.20;;;3.30;99.90;;;;;;5075723;28;20449;-80
2022/02/16 00:28:58;;;;;;;0.30;0.30;;;3.40;99.90;;;;;;5075140;28;21008;-80
2022/02/16 00:31:24;;;;;;;0.30;0.30;;;3.40;99.90;;;;;;5076254;28;20452;-81
2022/02/16 00:33:53;;;;;;;0.30;0.30;;;3.50;99.90;;;;;;5075637;28;20460;-78
2022/02/16 00:36:19;;;;;;;0.40;0.40;;;3.60;99.90;;;;;;5075850;28;20456;-78
2022/02/16 00:38:46;;;;;;;0.30;0.20;;;3.60;99.90;;;;;;5075642;28;20932;-80
2022/02/16 00:41:13;;;;;;;0.40;0.40;;;3.60;99.90;;;;;;5075941;28;20445;-80
2022/02/16 00:43:39;;;;;;;0.30;0.30;;;3.70;99.90;;;;;;5076079;28;20452;-79
2022/02/16 00:46:06;;;;;;;0.30;0.30;;;3.70;99.90;;;;;;5075548;28;20919;-80
2022/02/16 00:48:33;;;;;;;0.30;0.30;;;3.80;99.90;;;;;;5075649;28;20484;-80
2022/02/16 00:51:01;;;;;;;0.37;0.37;;;3.80;99.90;;;;;;5075586;28;20464;-80
2022/02/16 00:53:28;;;;;;;0.50;0.50;;;3.80;99.90;;;;;;5075580;28;20445;-80
2022/02/16 00:55:54;;;;;;;0.30;0.27;;;3.90;99.90;;;;;;5075464;28;20448;-80
2022/02/16 00:58:21;;;;;;;0.30;0.30;;;3.90;99.90;;;;;;5075261;28;20485;-80
2022/02/16 01:00:48;;;;;;;0.70;0.70;;;4.00;99.90;;;;;;5075579;28;20453;-80
2022/02/16 01:03:15;;;;;;;0.30;0.20;;;4.00;99.90;;;;;;5075199;28;21005;-80
2022/02/16 01:05:42;;;;;;;0.30;0.30;;;4.00;99.90;;;;;;5075520;28;20448;-80
2022/02/16 01:08:10;;;;;;;0.30;0.30;;;4.10;99.90;;;;;;5075087;28;21018;-80
2022/02/16 01:10:38;;;;;;;0.30;0.30;;;4.10;99.90;;;;;;5076177;28;20445;-80
2022/02/16 01:13:05;;;;;;;0.30;0.30;;;4.10;99.90;;;;;;5075332;28;20445;-80
2022/02/16 01:15:32;;;;;;;0.30;0.30;;;4.10;99.90;;;;;;5075015;28;20806;-80
2022/02/16 01:17:58;;;;;;;0.30;0.30;;;4.10;99.90;;;;;;5075306;28;20472;-80
2022/02/16 01:20:25;;;;;;;0.30;0.20;;;4.10;99.90;;;;;;5075103;28;20814;-80
2022/02/16 01:22:52;;;;;;;0.33;0.30;;;4.10;99.90;;;;;;5075108;28;20445;-80
2022/02/16 01:25:20;;;;;;;0.30;0.30;;;4.00;99.90;;;;;;5075012;28;20453;-80
2022/02/16 01:27:47;;;;;;;0.40;0.40;;;4.00;99.90;;;;;;5074914;28;20484;-80
2022/02/16 01:30:15;;;;;;;0.30;0.30;;;4.10;99.90;;;;;;5074883;28;20490;-80
2022/02/16 01:32:41;;;;;;;0.33;0.33;;;4.10;99.90;;;;;;5074633;28;20438;-80
2022/02/16 01:35:09;;;;;;;0.30;0.20;;;4.10;99.90;;;;;;5074828;28;20445;-80
2022/02/16 01:37:36;;;;;;;0.30;0.30;;;4.10;99.90;;;;;;5074505;28;20453;-80
2022/02/16 01:40:02;;;;;;;0.30;0.30;;;4.10;99.90;;;;;;5074532;28;20449;-80
2022/02/16 01:42:31;;;;;;;0.30;0.30;;;4.10;99.90;;;;;;5074047;28;20459;-80
2022/02/16 01:44:57;;;;;;;0.30;0.20;;;4.10;99.90;;;;;;5074296;28;20995;-80
2022/02/16 01:47:24;;;;;;;0.30;0.20;;;4.10;99.90;;;;;;5074503;28;20467;-80
2022/02/16 01:49:52;;;;;;;0.30;0.30;;;4.10;99.90;;;;;;5074461;28;20476;-80
2022/02/16 01:52:19;;;;;;;0.30;0.30;;;4.10;99.90;;;;;;5074135;28;20948;-80
2022/02/16 01:54:46;;;;;;;0.30;0.30;;;4.10;99.90;;;;;;5074220;28;20971;-80
2022/02/16 01:57:14;;;;;;;0.30;0.30;;;4.10;99.90;;;;;;5074120;28;20488;-80
2022/02/16 01:59:42;;;;;;;0.30;0.30;;;4.10;99.90;;;;;;5074329;28;20535;-80
2022/02/16 02:02:09;;;;;;;0.30;0.30;;;4.00;99.90;;;;;;5074229;28;20449;-80
2022/02/16 02:04:35;;;;;;;1.33;1.17;;;4.10;99.90;;;;;;5074309;28;20444;-80
2022/02/16 02:07:02;;;;;;;0.30;0.30;;;4.10;99.90;;;;;;5074320;28;20476;-80
2022/02/16 02:09:29;;;;;;;0.30;0.30;;;4.10;99.90;;;;;;5074075;28;20484;-80
2022/02/16 02:11:56;;;;;;;0.30;0.20;;;4.10;99.90;;;;;;5074136;28;20451;-80
2022/02/16 02:14:23;;;;;;;0.30;0.30;;;4.00;99.90;;;;;;5073770;28;20944;-80
2022/02/16 02:16:51;;;;;;;0.30;0.30;;;4.00;99.90;;;;;;5073890;28;20469;-80
2022/02/16 02:19:17;;;;;;;0.30;0.30;;;4.00;99.90;;;;;;5073951;28;20452;-80
2022/02/16 02:21:48;;;;;;;0.30;0.30;;;4.10;99.90;;;;;;5073873;28;20441;-80
2022/02/16 02:24:14;;;;;;;0.30;0.30;;;4.10;99.90;;;;;;5073915;28;20436;-80
2022/02/16 02:26:41;;;;;;;0.30;0.30;;;4.10;99.90;;;;;;5073436;28;20469;-80
2022/02/16 02:29:09;;;;;;;0.30;0.20;;;4.10;99.90;;;;;;5073384;28;20479;-80
2022/02/16 02:31:37;;;;;;;0.30;0.20;;;4.00;99.90;;;;;;5073692;28;20452;-80
2022/02/16 02:34:04;;;;;;;0.30;0.30;;;4.10;99.90;;;;;;5073762;28;20440;-80
2022/02/16 02:36:31;;;;;;;0.30;0.20;;;4.10;99.90;;;;;;5073566;28;20479;-80
2022/02/16 02:38:59;;;;;;;0.30;0.20;;;4.10;99.90;;;;;;5073670;28;20460;-80
2022/02/16 02:41:26;;;;;;;0.30;0.30;;;4.00;99.90;;;;;;5073607;28;20472;-80
2022/02/16 02:43:53;;;;;;;0.40;0.40;;;4.00;99.90;;;;;;5073561;28;20449;-80
2022/02/16 02:46:21;;;;;;;0.30;0.30;;;4.10;99.90;;;;;;5074039;28;20448;-80
2022/02/16 02:48:48;;;;;;;0.30;0.20;;;4.10;99.90;;;;;;5073152;28;20455;-80
2022/02/16 02:51:15;;;;;;;0.30;0.30;;;4.10;99.90;;;;;;5073514;28;20456;-80
2022/02/16 02:53:43;;;;;;;0.30;0.20;;;4.10;99.90;;;;;;5073089;28;20455;-80
2022/02/16 02:56:11;;;;;;;0.30;0.30;;;4.00;99.90;;;;;;5073274;28;20437;-80
2022/02/16 02:58:38;;;;;;;0.30;0.30;;;4.10;99.90;;;;;;5072890;28;20495;-80
2022/02/16 03:01:06;;;;;;;0.30;0.30;;;4.20;99.90;;;;;;5073124;28;20940;-80
2022/02/16 03:03:34;;;;;;;0.30;0.30;;;4.20;99.90;;;;;;5073401;28;20447;-80
2022/02/16 03:06:00;;;;;;;0.30;0.30;;;4.20;99.90;;;;;;5073327;28;20456;-80
2022/02/16 03:08:28;;;;;;;0.30;0.30;;;4.20;99.90;;;;;;5073545;28;20967;-80
2022/02/16 03:10:55;;;;;;;0.30;0.27;;;4.20;99.90;;;;;;5073561;28;20472;-78
2022/02/16 03:13:23;;;;;;;0.40;0.40;;;4.10;99.90;;;;;;5073465;28;20453;-78
2022/02/16 03:15:51;;;;;;;0.30;0.30;;;4.10;99.90;;;;;;5073090;28;20832;-78
2022/02/16 03:18:20;;;;;;;0.30;0.20;;;4.20;99.90;;;;;;5073153;28;20540;-78
2022/02/16 03:20:47;;;;;;;0.30;0.30;;;4.20;99.90;;;;;;5072880;28;21027;-78
2022/02/16 03:23:14;;;;;;;0.30;0.30;;;4.20;99.90;;;;;;5073197;28;20483;-79
2022/02/16 03:25:41;;;;;;;0.30;0.20;;;4.20;99.90;;;;;;5073253;28;20452;-78
2022/02/16 03:28:08;;;;;;;0.30;0.30;;;4.20;99.90;;;;;;5073228;28;20543;-78
2022/02/16 03:30:37;;;;;;;0.30;0.23;;;4.20;99.90;;;;;;5073040;28;20476;-78
2022/02/16 03:33:04;;;;;;;0.30;0.30;;;4.30;99.90;;;;;;5073362;28;20460;-78
2022/02/16 03:35:31;;;;;;;0.30;0.20;;;4.20;99.90;;;;;;5073058;28;20445;-78
2022/02/16 03:37:58;;;;;;;0.30;0.20;;;4.20;99.90;;;;;;5072948;28;20464;-78
2022/02/16 03:40:25;;;;;;;0.30;0.30;;;4.20;99.90;;;;;;5073120;28;20445;-78
2022/02/16 03:42:52;;;;;;;0.30;0.30;;;4.20;99.90;;;;;;5072955;28;20453;-78
2022/02/16 03:45:18;;;;;;;0.30;0.20;;;4.20;99.90;;;;;;5072934;28;20456;-78
2022/02/16 03:47:46;;;;;;;0.30;0.20;;;4.30;99.90;;;;;;5072873;28;20472;-78
2022/02/16 03:50:13;;;;;;;0.30;0.30;;;4.30;99.90;;;;;;5072828;28;20546;-78
2022/02/16 03:52:40;;;;;;;0.30;0.30;;;4.20;99.90;;;;;;5072564;28;20452;-78
2022/02/16 03:55:08;;;;;;;0.30;0.30;;;4.30;99.90;;;;;;5072582;28;20932;-78
2022/02/16 03:57:34;;;;;;;0.30;0.30;;;4.20;99.90;;;;;;5072635;28;20491;-79
2022/02/16 04:00:01;;;;;;;0.40;0.40;;;4.20;99.90;;;;;;5072780;28;20445;-78
2022/02/16 04:02:28;;;;;;;0.30;0.30;;;4.20;99.90;;;;;;5072770;28;20444;-78
2022/02/16 04:04:56;;;;;;;0.30;0.20;;;4.20;99.90;;;;;;5074793;28;20966;-78
2022/02/16 04:07:23;;;;;;;0.30;0.30;;;4.30;99.90;;;;;;5076676;28;20471;-78
2022/02/16 04:09:49;;;;;;;0.30;0.30;;;4.30;99.90;;;;;;5076073;28;20840;-78
2022/02/16 04:12:16;;;;;;;0.30;0.20;;;4.40;99.90;;;;;;5076626;28;20487;-79
2022/02/16 04:14:43;;;;;;;0.30;0.30;;;4.40;99.90;;;;;;5076042;28;20954;-78
2022/02/16 04:17:10;;;;;;;0.30;0.20;;;4.40;99.90;;;;;;5075860;28;20568;-78
2022/02/16 04:19:36;;;;;;;0.30;0.30;;;4.40;99.90;;;;;;5075992;28;20959;-78
2022/02/16 04:22:05;;;;;;;0.30;0.27;;;4.50;99.90;;;;;;5076215;28;20440;-78
2022/02/16 04:24:31;;;;;;;0.30;0.27;;;4.40;99.90;;;;;;5076135;28;20457;-79
2022/02/16 04:26:58;;;;;;;0.30;0.20;;;4.50;99.90;;;;;;5075781;28;20469;-78
2022/02/16 04:29:25;;;;;;;0.30;0.30;;;4.50;99.90;;;;;;5075911;28;20452;-78
2022/02/16 04:31:52;;;;;;;0.30;0.30;;;4.50;99.90;;;;;;5076305;28;20444;-79
2022/02/16 04:34:18;;;;;;;0.30;0.20;;;4.50;99.90;;;;;;5076022;28;20453;-78
2022/02/16 04:36:45;;;;;;;0.30;0.30;;;4.50;99.90;;;;;;5075591;28;20838;-78
2022/02/16 04:39:15;;;;;;;0.30;0.30;;;4.50;99.90;;;;;;5075644;28;20954;-79
2022/02/16 04:41:42;;;;;;;0.30;0.30;;;4.50;99.90;;;;;;5076041;28;20524;-78
2022/02/16 04:44:09;;;;;;;0.30;0.20;;;4.50;99.90;;;;;;5075544;28;20927;-79
2022/02/16 04:46:35;;;;;;;0.30;0.30;;;4.60;99.90;;;;;;5075552;28;20464;-79
2022/02/16 04:49:02;;;;;;;0.30;0.20;;;4.50;99.90;;;;;;5075818;28;20452;-79
2022/02/16 04:51:29;;;;;;;0.30;0.23;;;4.60;99.90;;;;;;5075666;28;20480;-79
2022/02/16 04:53:56;;;;;;;0.30;0.30;;;4.50;99.90;;;;;;5075588;28;20449;-79
2022/02/16 04:56:24;;;;;;;0.30;0.30;;;4.50;99.90;;;;;;5075245;28;20473;-79
2022/02/16 04:58:51;;;;;;;0.30;0.30;;;4.50;99.90;;;;;;5075471;28;20443;-79
2022/02/16 05:01:20;;;;;;;0.30;0.30;;;4.50;99.90;;;;;;5075249;28;20806;-80
2022/02/16 05:03:47;;;;;;;0.30;0.30;;;4.60;99.90;;;;;;5075151;28;20449;-79
2022/02/16 05:06:14;;;;;;;0.30;0.20;;;4.60;99.90;;;;;;5075415;28;20468;-79
2022/02/16 05:08:40;;;;;;;0.30;0.30;;;4.60;99.90;;;;;;5075386;28;20460;-80
2022/02/16 05:11:07;;;;;;;0.30;0.20;;;4.60;99.90;;;;;;5075321;28;20873;-80
2022/02/16 05:13:36;;;;;;;0.30;0.30;;;4.60;99.90;;;;;;5075257;28;20433;-80
2022/02/16 05:16:03;;;;;;;0.30;0.30;;;4.60;99.90;;;;;;5073647;28;21006;-80
2022/02/16 05:18:31;;;;;;;0.30;0.20;;;4.60;99.90;;;;;;5075242;28;20465;-80
2022/02/16 05:20:58;;;;;;;0.30;0.30;;;4.50;99.90;;;;;;5075166;28;20444;-80
2022/02/16 05:23:24;;;;;;;0.30;0.30;;;4.50;99.90;;;;;;5075080;28;20445;-80
2022/02/16 05:25:53;;;;;;;0.30;0.30;;;4.50;99.90;;;;;;5074790;28;20452;-80
2022/02/16 05:28:20;;;;;;;0.30;0.20;;;4.50;99.90;;;;;;5074741;28;20476;-74
2022/02/16 05:30:49;;;;;;;0.30;0.30;;;4.50;99.90;;;;;;5074789;28;20484;-78
2022/02/16 05:33:16;;;;;;;0.30;0.20;;;4.50;99.90;;;;;;5074907;28;20441;-78
2022/02/16 05:35:42;;;;;;;0.30;0.20;;;4.50;99.90;;;;;;5074864;28;20454;-77
2022/02/16 05:38:09;;;;;;;0.30;0.30;;;4.50;99.90;;;;;;5074712;28;20469;-78
2022/02/16 05:40:36;;;;;;;0.30;0.30;;;4.50;99.90;;;;;;5074569;28;20932;-78
2022/02/16 05:43:03;;;;;;;0.30;0.20;;;4.60;99.90;;;;;;5074591;28;20451;-79
2022/02/16 05:45:31;;;;;;;0.30;0.30;;;4.60;99.90;;;;;;5074358;28;20452;-78
2022/02/16 05:47:59;;;;;;;0.30;0.30;;;4.60;99.90;;;;;;5074767;28;20476;-79
2022/02/16 05:50:26;;;;;;;0.30;0.20;;;4.60;99.90;;;;;;5074475;28;20491;-79
2022/02/16 05:52:53;;;;;;;0.30;0.20;;;4.50;99.90;;;;;;5074464;28;20492;-78
2022/02/16 05:55:19;;;;;;;0.30;0.30;;;4.50;99.90;;;;;;5074457;28;20437;-78
2022/02/16 05:57:46;;;;;;;0.30;0.30;;;4.60;99.90;;;;;;5073998;28;20491;-78
2022/02/16 06:00:14;;;;;;;0.30;0.20;;;4.60;99.90;;;;;;5074331;28;20469;-78
2022/02/16 06:02:41;;;;;;;0.30;0.20;;;4.50;99.90;;;;;;5073837;28;20952;-78
2022/02/16 06:05:10;;;;;;;0.30;0.30;;;4.50;99.90;;;;;;5074277;28;20437;-78
2022/02/16 06:07:37;;;;;;;0.30;0.20;;;4.50;99.90;;;;;;5073963;28;20464;-78
2022/02/16 06:10:05;;;;;;;0.30;0.30;;;4.50;99.90;;;;;;5073947;28;20445;-78
2022/02/16 06:12:31;;;;;;;0.30;0.20;;;4.60;99.90;;;;;;5074139;28;20445;-78
2022/02/16 06:14:58;;;;;;;0.30;0.30;;;4.60;99.90;;;;;;5074082;28;20460;-78
2022/02/16 06:17:25;;;;;;;0.60;0.40;;;4.60;99.90;;;;;;5073901;28;20475;-78
2022/02/16 06:19:52;;;;;;;0.30;0.30;;;4.60;99.90;;;;;;5074172;28;20445;-78
2022/02/16 06:22:20;;;;;;;0.30;0.20;;;4.60;99.90;;;;;;5073908;28;20448;-78
2022/02/16 06:24:46;;;;;;;0.30;0.30;;;4.60;99.90;;;;;;5073820;28;20449;-78
2022/02/16 06:27:13;;;;;;;0.30;0.30;;;4.60;99.90;;;;;;5073111;28;20460;-78
2022/02/16 06:29:40;;;;;;;0.30;0.30;;;4.70;99.90;;;;;;5073692;28;20449;-78
2022/02/16 06:32:07;;;;;;;0.30;0.20;;;4.70;99.90;;;;;;5073354;28;20480;-79
2022/02/16 06:34:34;;;;;;;0.30;0.20;;;4.70;99.90;;;;;;5073690;28;20533;-79
2022/02/16 06:37:00;;;;;;;0.30;0.20;;;4.70;99.90;;;;;;5073659;28;20501;-79
2022/02/16 06:39:28;;;;;;;0.30;0.20;;;4.70;99.90;;;;;;5073739;28;20440;-79
2022/02/16 06:41:55;;;;;;;0.30;0.30;;;4.70;99.90;;;;;;5073562;28;20449;-79
2022/02/16 06:44:22;;;;;;;0.30;0.30;;;4.80;99.90;;;;;;5073412;28;20452;-79
2022/02/16 06:46:49;;;;;;;0.30;0.30;;;4.70;99.90;;;;;;5073247;28;20483;-80
2022/02/16 06:49:15;;;;;;;0.30;0.20;;;4.70;99.90;;;;;;5073350;28;20445;-79
2022/02/16 06:51:43;;;;;;;0.33;0.33;;;4.80;99.90;;;;;;5073470;28;20891;-79
2022/02/16 06:54:10;;;;;;;0.30;0.30;;;4.80;99.90;;;;;;5073123;28;20543;-79
2022/02/16 06:56:38;;;;;;;0.30;0.20;;;4.80;99.90;;;;;;5073224;28;20495;-79
2022/02/16 06:59:05;;;;;;;0.30;0.20;;;4.80;99.90;;;;;;5073484;28;20444;-79
2022/02/16 07:01:31;;;;;;;0.30;0.20;;;4.90;99.90;;;;;;5073092;28;20943;-79
2022/02/16 07:03:58;;;;;;;0.30;0.20;;;4.90;99.90;;;;;;5073368;28;20449;-80
2022/02/16 07:06:25;;;;;;;0.30;0.20;;;4.90;99.90;;;;;;5072995;28;20966;-79
2022/02/16 07:08:51;;;;;;;0.30;0.30;;;4.90;99.90;;;;;;5073166;28;20441;-79
2022/02/16 07:11:18;;;;;;;0.30;0.30;;;4.90;99.90;;;;;;5073239;28;20488;-79
2022/02/16 07:13:46;;;;;;;0.30;0.20;;;4.90;99.90;;;;;;5073187;28;20539;-80
2022/02/16 07:16:13;;;;;;;0.30;0.30;;;5.00;99.90;;;;;;5073241;28;20460;-79
2022/02/16 07:18:40;;;;;;;0.30;0.20;;;5.00;99.90;;;;;;5073268;28;20444;-79
2022/02/16 07:21:08;;;;;;;0.30;0.30;;;5.00;99.90;;;;;;5073250;28;20445;-80
2022/02/16 07:23:35;;;;;;;0.30;0.30;;;5.00;99.90;;;;;;5073177;28;20449;-80
2022/02/16 07:26:02;;;;;;;0.30;0.20;;;5.00;99.90;;;;;;5073170;28;20429;-79
2022/02/16 07:28:29;;;;;;;0.30;0.30;;;5.00;99.90;;;;;;5072785;28;21004;-79
2022/02/16 07:30:57;;;;;;;0.30;0.30;;;5.00;99.90;;;;;;5073283;28;20456;-79
2022/02/16 07:33:24;;;;;;;0.30;0.20;;;5.00;99.90;;;;;;5073095;28;20406;-79
2022/02/16 07:35:52;;;;;;;0.30;0.20;;;5.00;99.90;;;;;;5073023;28;20435;-79
2022/02/16 07:38:18;;;;;;;0.30;0.27;;;5.00;99.90;;;;;;5072796;28;21040;-79
2022/02/16 07:40:45;;;;;;;0.30;0.30;;;5.00;99.90;;;;;;5076558;28;20437;-79
2022/02/16 07:43:12;;;;;;;0.30;0.30;;;5.00;99.90;;;;;;5076572;28;20938;-79
2022/02/16 07:45:38;;;;;;;0.30;0.20;;;5.10;99.90;;;;;;5076690;28;20927;-79
2022/02/16 07:48:07;;;;;;;0.30;0.30;;;5.10;99.90;;;;;;5076852;28;20467;-79
2022/02/16 07:50:34;;;;;;;0.30;0.20;;;5.10;99.90;;;;;;5076498;28;20980;-80
2022/02/16 07:53:01;;;;;;;0.30;0.30;;;5.10;99.90;;;;;;5076866;28;20448;-79
2022/02/16 07:55:28;;;;;;;0.30;0.30;;;5.20;99.90;;;;;;5076408;28;21015;-79
2022/02/16 07:57:58;;;;;;;0.30;0.20;;;5.20;99.90;;;;;;5076146;28;20852;-79
2022/02/16 08:00:25;;;;;;;0.30;0.20;;;5.20;99.90;;;;;;5077152;28;20833;-80
2022/02/16 08:02:52;;;;;;;0.30;0.20;;;5.20;99.90;;;;;;5076577;28;20449;-79
2022/02/16 08:05:20;;;;;;;0.30;0.20;;;5.20;99.90;;;;;;5076598;28;20428;-79
2022/02/16 08:07:47;;;;;;;0.40;0.40;;;5.30;99.90;;;;;;5076095;28;20826;-79
2022/02/16 08:10:14;;;;;;;0.30;0.20;;;5.30;99.90;;;;;;5076376;28;20456;-79
2022/02/16 08:12:44;;;;;;;0.40;0.40;;;5.20;99.90;;;;;;5076565;28;20480;-79
2022/02/16 08:15:11;;;;;;;0.30;0.30;;;5.30;99.90;;;;;;5075990;28;20940;-80
2022/02/16 08:17:39;;;;;;;0.30;0.20;;;5.40;99.90;;;;;;5076251;28;20468;-80
2022/02/16 08:20:07;;;;;;;0.30;0.20;;;5.40;99.90;;;;;;5076259;28;20452;-79
2022/02/16 08:22:35;;;;;;;0.30;0.20;;;5.40;99.90;;;;;;5076260;28;20447;-79
2022/02/16 08:25:02;;;;;;;0.30;0.30;;;5.40;99.90;;;;;;5076173;28;20456;-79
2022/02/16 08:27:29;;;;;;;0.30;0.30;;;5.40;99.90;;;;;;5075753;28;20839;-79
2022/02/16 08:29:56;;;;;;;0.30;0.20;;;5.40;99.90;;;;;;5075830;28;20825;-80
2022/02/16 08:32:23;;;;;;;0.30;0.27;;;5.40;99.90;;;;;;5075954;28;20852;-80
2022/02/16 08:34:50;;;;;;;0.30;0.20;;;5.30;99.90;;;;;;5076059;28;20444;-80
2022/02/16 08:37:16;;;;;;;0.30;0.20;;;5.30;99.90;;;;;;5075627;28;20473;-80
2022/02/16 08:39:45;;;;;;;0.30;0.20;;;5.20;99.90;;;;;;5076659;28;20452;-80
2022/02/16 08:42:12;;;;;;;0.30;0.20;;;5.20;99.90;;;;;;5075688;28;20437;-80
2022/02/16 08:44:39;;;;;;;0.30;0.20;;;5.20;99.90;;;;;;5075905;28;20441;-80
2022/02/16 08:47:07;;;;;;;0.30;0.30;;;5.30;99.90;;;;;;5075459;28;20457;-79
2022/02/16 08:49:34;;;;;;;0.30;0.30;;;5.20;99.90;;;;;;5075204;28;20452;-79
2022/02/16 08:52:01;;;;;;;0.30;0.20;;;5.20;99.90;;;;;;5075663;28;20477;-79
2022/02/16 08:54:27;;;;;;;0.30;0.30;;;5.10;99.90;;;;;;5075373;28;20786;-79
2022/02/16 08:56:57;;;;;;;0.30;0.20;;;5.10;99.90;;;;;;5075332;28;20488;-79
2022/02/16 08:59:24;;;;;;;0.30;0.30;;;5.20;99.90;;;;;;5075637;28;20429;-79
2022/02/16 09:01:51;;;;;;;0.30;0.20;;;5.20;99.90;;;;;;5075464;28;20444;-79
2022/02/16 09:04:18;;;;;;;0.30;0.20;;;5.20;99.90;;;;;;5075223;28;20940;-79
2022/02/16 09:07:27;;;;;;;0.30;0.20;;;5.20;99.90;;;;;;5075805;28;20534;-79
2022/02/16 09:09:36;;;;;;;0.30;0.23;;;5.20;99.90;;;;;;5075019;28;20540;-79
2022/02/16 09:12:06;;;;;;;0.30;0.30;;;5.10;99.90;;;;;;5075359;28;20486;-78
2022/02/16 09:14:32;;;;;;;0.30;0.20;;;5.10;99.90;;;;;;5075010;28;20935;-79
2022/02/16 09:16:59;;;;;;;0.30;0.30;;;5.20;99.90;;;;;;5075224;28;20465;-79
2022/02/16 09:19:26;;;;;;;0.30;0.27;;;5.30;99.90;;;;;;5075202;28;20452;-80
2022/02/16 09:21:53;;;;;;;0.30;0.30;;;5.40;99.90;;;;;;5075163;28;20807;-79
2022/02/16 09:24:21;;;;;;;0.30;0.20;;;5.40;99.90;;;;;;5074882;28;20802;-80
2022/02/16 09:26:50;;;;;;;0.30;0.20;;;5.50;99.90;;;;;;5074686;28;20469;-79
2022/02/16 09:29:18;;;;;;;0.30;0.20;;;5.60;99.90;;;;;;5075020;28;20451;-79
2022/02/16 09:31:44;;;;;;;0.30;0.30;;;5.60;99.90;;;;;;5074513;28;20849;-79
2022/02/16 09:34:11;;;;;;;0.30;0.20;;;5.60;99.90;;;;;;5074983;28;20452;-79
2022/02/16 09:36:38;;;;;;;0.30;0.30;;;5.60;99.90;;;;;;5074668;28;20851;-79
2022/02/16 09:39:05;;;;;;;0.30;0.20;;;5.60;99.90;;;;;;5074792;28;20448;-79
2022/02/16 09:41:31;;;;;;;0.40;0.40;;;5.70;99.90;;;;;;5074472;28;20449;-79
2022/02/16 09:43:59;;;;;;;0.30;0.20;;;5.80;99.90;;;;;;5074776;28;20456;-79
2022/02/16 09:46:28;;;;;;;0.30;0.30;;;5.90;99.90;;;;;;5074813;28;20440;-77
2022/02/16 09:48:55;;;;;;;0.30;0.30;;;6.00;99.90;;;;;;5074744;28;20429;-79
2022/02/16 09:51:22;;;;;;;0.30;0.30;;;5.90;99.90;;;;;;5074438;28;20472;-79
2022/02/16 09:53:49;;;;;;;0.30;0.20;;;6.10;99.90;;;;;;5074516;28;20445;-79
2022/02/16 09:56:16;;;;;;;0.30;0.30;;;6.10;99.90;;;;;;5074311;28;20457;-80
2022/02/16 09:58:43;;;;;;;0.30;0.30;;;6.10;99.90;;;;;;5074047;28;20943;-79
2022/02/16 10:01:12;;;;;;;0.30;0.20;;;6.20;99.90;;;;;;5073984;28;20449;-78
2022/02/16 10:03:57;;;;;;;0.30;0.30;;;6.20;99.90;;;;;;5073724;28;20465;-78
2022/02/16 10:06:36;;;;;;;0.30;0.30;;;6.30;99.90;;;;;;5074320;28;20440;-81
2022/02/16 10:09:04;;;;;;;0.30;0.20;;;6.40;99.90;;;;;;5074304;28;20469;-79
2022/02/16 10:11:31;;;;;;;0.30;0.20;;;6.50;99.90;;;;;;5074444;28;20457;-82
2022/02/16 10:14:16;;;;;;;0.30;0.30;;;6.60;99.90;;;;;;5074072;28;20429;-79
2022/02/16 10:16:43;;;;;;;0.30;0.30;;;6.60;99.90;;;;;;5074295;28;20555;-79
2022/02/16 10:19:11;;;;;;;0.30;0.30;;;6.70;99.90;;;;;;5074764;28;20452;-79
2022/02/16 10:21:38;;;;;;;0.30;0.20;;;6.80;99.90;;;;;;5074026;28;20804;-79
2022/02/16 10:24:20;;;;;;;0.30;0.20;;;6.80;99.90;;;;;;5073678;28;20429;-79
2022/02/16 10:26:52;;;;;;;0.30;0.20;;;7.00;99.90;;;;;;5074014;28;20473;-79
2022/02/16 10:29:20;;;;;;;0.30;0.20;;;7.00;99.90;;;;;;5073604;28;20433;-79
2022/02/16 10:31:47;;;;;;;0.30;0.20;;;7.10;99.90;;;;;;5072995;28;20469;-79
2022/02/16 10:34:15;;;;;;;0.30;0.30;;;7.00;99.90;;;;;;5073579;28;20445;-78
2022/02/16 10:36:46;;;;;;;0.30;0.20;;;7.10;99.90;;;;;;5073430;28;20453;-78
2022/02/16 10:39:16;;;;;;;0.30;0.30;;;7.10;99.90;;;;;;5073819;28;20436;-79
2022/02/16 10:41:44;;;;;;;0.30;0.20;;;7.10;99.90;;;;;;5073414;28;20908;-79
2022/02/16 10:44:23;;;;;;;0.30;0.20;;;7.20;99.90;;;;;;5073629;28;20448;-79
2022/02/16 10:47:01;;;;;;;0.30;0.30;;;7.40;99.90;;;;;;5073548;28;20835;-78
2022/02/16 10:49:30;;;;;;;0.30;0.20;;;7.50;99.90;;;;;;5073542;28;20421;-78
2022/02/16 10:52:08;;;;;;;0.30;0.20;;;7.60;99.90;;;;;;5073514;28;20464;-78
2022/02/16 10:54:36;;;;;;;0.30;0.20;;;7.80;99.90;;;;;;5073383;28;20437;-78
2022/02/16 10:57:03;;;;;;;0.30;0.20;;;8.10;99.90;;;;;;5073221;28;20481;-78
2022/02/16 10:59:30;;;;;;;0.30;0.30;;;8.50;99.90;;;;;;5073442;28;20449;-78
2022/02/16 11:02:03;;;;;;;0.30;0.20;;;8.60;99.90;;;;;;5073350;28;20434;-78
2022/02/16 11:04:32;;;;;;;0.30;0.30;;;8.80;99.90;;;;;;5073429;28;20436;-78
2022/02/16 11:07:00;;;;;;;0.40;0.30;;;9.00;99.90;;;;;;5072989;28;20960;-78
2022/02/16 11:09:30;;;;;;;0.30;0.20;;;9.40;99.90;;;;;;5073360;28;20425;-78
2022/02/16 11:11:57;;;;;;;0.30;0.20;;;9.70;99.90;;;;;;5073494;28;20982;-78
2022/02/16 11:14:28;;;;;;;0.37;0.30;;;10.20;99.90;;;;;;5073448;28;20460;-78
2022/02/16 11:16:56;;;;;;;0.30;0.20;;;10.20;99.90;;;;;;5073148;28;20514;-78
2022/02/16 11:19:25;;;;;;;0.30;0.30;;;10.10;99.90;;;;;;5073285;28;20437;-78
2022/02/16 11:22:01;;;;;;;0.30;0.20;;;9.90;99.90;;;;;;5072915;28;20916;-78
2022/02/16 11:24:33;;;;;;;0.30;0.30;;;9.60;99.90;;;;;;5072900;28;20800;-78
2022/02/16 11:27:00;;;;;;;0.30;0.20;;;9.60;99.90;;;;;;5072852;28;20843;-78
2022/02/16 11:29:43;;;;;;;0.30;0.20;;;9.50;99.90;;;;;;5073120;28;20433;-78
2022/02/16 11:32:34;;;;;;;0.43;0.40;;;9.50;99.90;;;;;;5072912;28;20460;-78
2022/02/16 11:35:21;;;;;;;0.30;0.30;;;9.60;99.90;;;;;;5053461;28;20449;-78
2022/02/16 11:37:51;;;;;;;0.40;0.30;;;9.60;99.90;;;;;;5072717;28;20496;-78
2022/02/16 11:40:19;;;;;;;0.30;0.20;;;9.70;99.90;;;;;;5073212;28;20901;-78
2022/02/16 11:42:55;;;;;;;0.30;0.30;;;10.00;99.90;;;;;;5073185;28;20838;-78
2022/02/16 11:45:37;;;;;;;0.40;0.40;;;10.50;99.90;;;;;;5072848;28;20454;-78
2022/02/16 11:48:04;;;;;;;0.30;0.30;;;10.80;99.90;;;;;;5072868;28;20468;-78
2022/02/16 11:50:37;;;;;;;0.30;0.20;;;10.90;99.90;;;;;;5072610;28;20447;-78
2022/02/16 11:53:07;;;;;;;0.30;0.20;;;11.10;99.90;;;;;;5073146;28;20489;-78
2022/02/16 11:55:35;;;;;;;0.30;0.20;;;11.00;99.90;;;;;;5072891;28;20436;-78
2022/02/16 11:58:19;;;;;;;0.30;0.20;;;10.80;99.90;;;;;;5072434;28;20473;-78
2022/02/16 12:00:58;;;;;;;0.30;0.20;;;10.60;99.90;;;;;;5072798;28;20456;-79
2022/02/16 12:03:27;;;;;;;0.67;0.67;;;10.50;99.90;;;;;;5072783;28;20425;-80
2022/02/16 12:06:03;;;;;;;0.30;0.20;;;10.40;99.90;;;;;;5072478;28;20444;-81
2022/02/16 12:08:36;;;;;;;0.30;0.20;;;10.30;99.90;;;;;;5072739;28;20464;-81
2022/02/16 12:11:17;;;;;;;0.30;0.30;;;10.10;99.90;;;;;;5072484;28;20445;-79
2022/02/16 12:13:46;;;;;;;0.30;0.30;;;10.00;99.90;;;;;;5072345;28;20971;-78
2022/02/16 12:16:16;;;;;;;0.83;0.30;;;10.00;99.90;;;;;;5072413;28;20441;-78
2022/02/16 12:18:47;;;;;;;0.30;0.20;;;9.90;99.90;;;;;;5072554;28;20433;-79
2022/02/16 12:21:14;;;;;;;0.30;0.20;;;9.70;99.90;;;;;;5072677;28;20433;-78
2022/02/16 12:23:45;;;;;;;0.30;0.20;;;9.70;99.90;;;;;;5072573;28;20443;-80
2022/02/16 12:26:16;;;;;;;0.30;0.30;;;9.60;99.90;;;;;;5075233;28;20433;-80
2022/02/16 12:28:59;;;;;;;0.30;0.20;;;9.50;99.90;;;;;;5076969;28;20441;-80
2022/02/16 12:31:28;;;;;;;0.30;0.30;;;9.50;99.90;;;;;;5076169;28;20443;-80
2022/02/16 12:34:04;;;;;;;0.30;0.20;;;9.50;99.90;;;;;;5073750;28;20480;-80
2022/02/16 12:36:32;;;;;;;0.30;0.20;;;9.40;99.90;;;;;;5053832;28;20433;-80
2022/02/16 12:39:02;;;;;;;0.30;0.20;;;9.50;99.90;;;;;;5053894;28;20457;-79
2022/02/16 12:41:29;;;;;;;0.30;0.30;;;9.40;99.90;;;;;;5054457;28;20449;-79
2022/02/16 12:43:59;;;;;;;0.30;0.30;;;9.50;99.90;;;;;;5054284;28;20430;-79
2022/02/16 12:46:28;;;;;;;0.30;0.20;;;9.60;99.90;;;;;;5054497;28;20450;-79
2022/02/16 12:48:55;;;;;;;0.30;0.20;;;9.70;99.90;;;;;;5054605;28;20453;-79
2022/02/16 12:51:23;;;;;;;0.30;0.20;;;9.70;99.90;;;;;;5054885;28;20836;-79
2022/02/16 12:53:51;;;;;;;0.30;0.20;;;9.80;99.90;;;;;;5055674;28;20477;-79
2022/02/16 12:56:20;;;;;;;0.30;0.20;;;9.90;99.90;;;;;;5055394;28;20450;-79
2022/02/16 12:58:47;;;;;;;0.30;0.30;;;9.90;99.90;;;;;;5055656;28;20487;-79
2022/02/16 13:01:15;;;;;;;0.30;0.30;;;10.00;99.90;;;;;;5055534;28;20453;-79